Litchfield, CA

3:25 PM PST on March 02, 2015 (GMT -0800)
KCALITCH2 | Change Station
CLOSE
Current Station
Personal Weather Station
Location: Litchfield, CA
Elevation: 4154 ft
Nearby Weather Stations

Elev 4154 ft 40.43 °N, 120.45 °W | Updated 32 seconds ago

Partly Cloudy
Partly Cloudy
49.2 °F
Feels Like 46 °F
N
8.0
Wind Variable Wind from West
Gusts 12.0 mph

Today
High -- | Low -- °F
--% Chance of Precip.
Yesterday
High -- | Low -- °F
Precip. -- in
6:33 AM 5:53 PM
Waxing Gibbous, 93% visible
Pressure 29.77 in
Visibility 10.0 miles
Clouds Scattered Clouds 4000 ft
Mostly Cloudy 4700 ft
Overcast 7000 ft
Windchill 46 °F
Dew Point 30 °F
Humidity 48%
Rainfall 0.00 in
Snow Depth Not available.
UV 1 out of 12
Pollen 4.60 out of 12
Air Quality Not available.
Flu Activity Not available.
METAR KRTS 022315Z AUTO 33010KT 10SM SCT040 BKN047 OVC070 05/M03 A2977 RMK AO2

More Conditions Fewer Conditions

Pressure 29.77 in
Visibility 10.0 miles
Clouds Scattered Clouds 4000 ft
Mostly Cloudy 4700 ft
Overcast 7000 ft
Windchill 46 °F
Dew Point 30 °F
Humidity 48%
Rainfall 0.00 in
Snow Depth Not available.
UV 1 out of 12
Pollen 4.60 out of 12
Air Quality Not available.
Flu Activity Not available.
METAR KRTS 022315Z AUTO 33010KT 10SM SCT040 BKN047 OVC070 05/M03 A2977 RMK AO2

More Conditions Fewer Conditions

10-Day Weather Forecast

Almanac

Astronomy

Mar. 02, 2015 Rise Set
Actual Time
Civil Twilight
Nautical Twilight
Astronomical Twilight
Moon
Length of Visible Light
Length of Day
Tomorrow will be .
, % of the Moon is Illuminated

Today's Extremes

State Highs State Lows

Community

WunderPhotos

Upload Photos

1,801,997 photos uploaded!

WunderBlogs® & News

Nearby

Air Quality

  Air Quality AQ Index Pollutant
Not available.

Snow Depth

Station Depth Elevation

Earthquake Activity

City Distance Mag. Time & Date
Minimum magnitude displayed is 2.5.

Coastal Water Temperatures

Place Temperature

Nearby Weather Stations